Arcadia, Indiana
Current Conditions -  °F | °C
As of 4:55 AM on Friday 31 Oct 2014 (Local Time) from KTYQ Reporting Station
Overcast Overcast  
Wind Chill: 44°   Ceiling: 10000
Heat Index: 44°   Visibility: 10mi
Dew Point: 36°   Wind: 3mph
Humidity: 75%   Direction: 300°WNW
Pressure: 30"   Gusts: NA
Location:  40.18°N, 86.02°W
Report Text: KTYQ 310855Z AUTO 30003KT 10SM SCT035 OVC100 07/02 A3000 RMK AO2 T00650023
Loading
Personal Weather Stations






























Interactive Weather Map
Tropical Storm Tracking
New forecast layout! Learn more

10-Day Weather Forecast

Advertisements
Track Severe Weather on mobile